Time;durP1;ratioP1;P1;durP2;ratioP2;P2;SDS_P1;SDS_P2;PMS_P1;PMS_P2;Temp;Humidity;BMP_temperature;BMP_pressure;BME280_temperature;BME280_humidity;BME280_pressure;Samples;Min_cycle;Max_cycle;Signal;HPM_P1;HPM_P2
2024/01/20 10:22:07;;;;;;;;;2.67;1.00;;;;;;;;5105650;27;13396;-70
2024/01/20 10:24:32;;;;;;;;;0.00;0.00;;;;;;;;5107237;28;8814;-71
2024/01/20 10:26:59;;;;;;;;;0.25;0.00;;;;;;;;5107672;28;12323;-66
2024/01/20 10:29:25;;;;;;;;;1.00;1.00;;;;;;;;5108260;28;8799;-65
2024/01/20 10:31:50;;;;;;;;;1.75;1.50;;;;;;;;5101890;28;11451;-66
2024/01/20 10:34:15;;;;;;;;;4.00;1.00;;;;;;;;5094958;28;8835;-66
2024/01/20 10:36:44;;;;;;;;;0.00;0.00;;;;;;;;5108223;28;8792;-67
2024/01/20 10:39:10;;;;;;;;;1.00;1.00;;;;;;;;5108316;28;8938;-67
2024/01/20 10:41:38;;;;;;;;;4.00;4.00;;;;;;;;5107782;28;11530;-67
2024/01/20 10:44:05;;;;;;;;;1.50;1.50;;;;;;;;5107027;28;11542;-67
2024/01/20 10:46:33;;;;;;;;;1.00;1.00;;;;;;;;5108062;28;11467;-68
2024/01/20 10:49:02;;;;;;;;;0.25;0.00;;;;;;;;5107756;28;11430;-66
2024/01/20 10:51:28;;;;;;;;;2.00;0.00;;;;;;;;5108060;28;11468;-65
2024/01/20 10:53:57;;;;;;;;;0.00;0.00;;;;;;;;5105516;27;11479;-65
2024/01/20 10:56:24;;;;;;;;;1.25;0.00;;;;;;;;5107584;28;8784;-67
2024/01/20 10:59:08;;;;;;;;;2.00;1.00;;;;;;;;5107848;28;11462;-66
2024/01/20 11:01:34;;;;;;;;;1.00;1.00;;;;;;;;5106488;28;11468;-66
2024/01/20 11:04:01;;;;;;;;;0.75;0.75;;;;;;;;5105027;28;11547;-66
2024/01/20 11:06:26;;;;;;;;;0.25;0.00;;;;;;;;5107358;28;8823;-66
2024/01/20 11:08:52;;;;;;;;;12.75;12.50;;;;;;;;5107575;28;11423;-67
2024/01/20 11:11:19;;;;;;;;;1.00;1.00;;;;;;;;5107936;28;8914;-66
2024/01/20 11:13:47;;;;;;;;;1.00;1.00;;;;;;;;5106526;27;8857;-66
2024/01/20 11:16:20;;;;;;;;;2.25;1.75;;;;;;;;5107389;27;11443;-66
2024/01/20 11:18:45;;;;;;;;;2.25;2.00;;;;;;;;5105992;28;11454;-66
2024/01/20 11:21:13;;;;;;;;;1.75;0.75;;;;;;;;5107121;28;11489;-67
2024/01/20 11:23:39;;;;;;;;;1.00;0.75;;;;;;;;5106388;27;8784;-66
2024/01/20 11:26:11;;;;;;;;;3.00;1.00;;;;;;;;5106886;28;11405;-67
2024/01/20 11:28:37;;;;;;;;;1.00;1.00;;;;;;;;5087121;28;8821;-67
2024/01/20 11:31:03;;;;;;;;;1.00;1.00;;;;;;;;5086800;28;11147;-65
2024/01/20 11:33:29;;;;;;;;;1.00;1.00;;;;;;;;5073101;28;9599;-67
2024/01/20 11:35:55;;;;;;;;;2.00;1.00;;;;;;;;5085582;28;10563;-66
2024/01/20 11:38:20;;;;;;;;;3.75;1.25;;;;;;;;5091638;28;10468;-66
2024/01/20 11:41:01;;;;;;;;;1.00;1.00;;;;;;;;5093351;28;8804;-66
2024/01/20 11:43:26;;;;;;;;;2.00;1.00;;;;;;;;5093582;28;8807;-66
2024/01/20 11:45:51;;;;;;;;;0.00;0.00;;;;;;;;5092130;28;10184;-69
2024/01/20 11:48:18;;;;;;;;;0.00;0.00;;;;;;;;5092792;28;8792;-70
2024/01/20 11:50:43;;;;;;;;;0.75;0.00;;;;;;;;5093228;28;8824;-69
2024/01/20 11:53:09;;;;;;;;;0.00;0.00;;;;;;;;5093317;28;10021;-68
2024/01/20 11:55:34;;;;;;;;;0.00;0.00;;;;;;;;5091601;28;9627;-69
2024/01/20 11:57:59;;;;;;;;;1.00;0.00;;;;;;;;5092810;28;9572;-68
2024/01/20 12:00:25;;;;;;;;;0.00;0.00;;;;;;;;5093025;28;8831;-67
2024/01/20 12:02:51;;;;;;;;;0.00;0.00;;;;;;;;5092831;28;8780;-68
2024/01/20 12:05:16;;;;;;;;;0.50;0.00;;;;;;;;5091568;28;9683;-68
2024/01/20 12:07:42;;;;;;;;;0.00;0.00;;;;;;;;5092473;28;11508;-69
2024/01/20 12:10:07;;;;;;;;;0.00;0.00;;;;;;;;5092046;28;8811;-68
2024/01/20 12:12:32;;;;;;;;;0.00;0.00;;;;;;;;5092519;28;8815;-68
2024/01/20 12:14:58;;;;;;;;;1.00;0.00;;;;;;;;5091772;28;8773;-68
2024/01/20 12:17:24;;;;;;;;;2.00;0.00;;;;;;;;5091211;28;8857;-68
2024/01/20 12:19:49;;;;;;;;;0.00;0.00;;;;;;;;5092528;28;8868;-68
2024/01/20 12:22:15;;;;;;;;;0.25;0.00;;;;;;;;5092867;28;11516;-68
2024/01/20 12:24:46;;;;;;;;;0.00;0.00;;;;;;;;5091647;28;8797;-67
2024/01/20 12:27:12;;;;;;;;;0.00;0.00;;;;;;;;5092458;28;8910;-68
2024/01/20 12:29:37;;;;;;;;;0.00;0.00;;;;;;;;5092493;28;12155;-67
2024/01/20 12:32:03;;;;;;;;;0.00;0.00;;;;;;;;5092422;28;8796;-68
2024/01/20 12:34:28;;;;;;;;;1.75;0.00;;;;;;;;5091197;28;8813;-68
2024/01/20 12:36:54;;;;;;;;;2.00;2.00;;;;;;;;5092150;28;8846;-68
2024/01/20 12:39:19;;;;;;;;;0.50;0.00;;;;;;;;5092516;28;8788;-69
2024/01/20 12:41:45;;;;;;;;;2.00;1.00;;;;;;;;5092387;28;8813;-68
2024/01/20 12:44:10;;;;;;;;;0.00;0.00;;;;;;;;5090807;28;8824;-69
2024/01/20 12:46:35;;;;;;;;;0.00;0.00;;;;;;;;5091851;28;8862;-69
2024/01/20 12:49:01;;;;;;;;;2.00;0.00;;;;;;;;5081478;28;8823;-68
2024/01/20 12:51:26;;;;;;;;;1.75;0.75;;;;;;;;5091579;28;8870;-68
2024/01/20 12:53:51;;;;;;;;;0.00;0.00;;;;;;;;5090803;28;8874;-68
2024/01/20 12:56:17;;;;;;;;;1.00;1.00;;;;;;;;5091934;28;8797;-69
2024/01/20 12:58:42;;;;;;;;;4.50;2.50;;;;;;;;5091583;28;8780;-68
2024/01/20 13:01:07;;;;;;;;;0.00;0.00;;;;;;;;5091846;28;8826;-70
2024/01/20 13:03:33;;;;;;;;;1.25;1.25;;;;;;;;5090944;28;8856;-69
2024/01/20 13:05:58;;;;;;;;;0.00;0.00;;;;;;;;5090973;28;8780;-69
2024/01/20 13:08:23;;;;;;;;;1.00;1.00;;;;;;;;5091412;28;8827;-69
2024/01/20 13:10:50;;;;;;;;;1.00;0.00;;;;;;;;5091654;28;9517;-68
2024/01/20 13:13:15;;;;;;;;;0.00;0.00;;;;;;;;5091719;28;8784;-69
2024/01/20 13:15:41;;;;;;;;;0.00;0.00;;;;;;;;5090171;28;11434;-69
2024/01/20 13:18:06;;;;;;;;;0.00;0.00;;;;;;;;5091446;28;8783;-71
2024/01/20 13:20:32;;;;;;;;;5.00;5.00;;;;;;;;5089821;28;9001;-71
2024/01/20 13:22:57;;;;;;;;;4.75;2.00;;;;;;;;5091293;28;8911;-70
2024/01/20 13:25:22;;;;;;;;;0.00;0.00;;;;;;;;5089940;28;8868;-69
2024/01/20 13:27:48;;;;;;;;;0.00;0.00;;;;;;;;5091109;28;8822;-69
2024/01/20 13:30:13;;;;;;;;;0.00;0.00;;;;;;;;5090934;28;8804;-69
2024/01/20 13:32:39;;;;;;;;;1.00;1.00;;;;;;;;5089729;28;8800;-69
2024/01/20 13:35:04;;;;;;;;;1.75;1.00;;;;;;;;5089825;28;8874;-69
2024/01/20 13:37:30;;;;;;;;;7.75;5.00;;;;;;;;5090979;28;8799;-68
2024/01/20 13:39:55;;;;;;;;;1.00;1.00;;;;;;;;5091051;28;8788;-68
2024/01/20 13:42:20;;;;;;;;;9.00;6.25;;;;;;;;5091085;28;8784;-69
2024/01/20 13:44:46;;;;;;;;;0.00;0.00;;;;;;;;5089858;28;8890;-67
2024/01/20 13:47:11;;;;;;;;;4.00;2.00;;;;;;;;5090685;28;8803;-67
2024/01/20 13:49:36;;;;;;;;;1.00;0.00;;;;;;;;5090661;28;9544;-69
2024/01/20 13:52:02;;;;;;;;;0.00;0.00;;;;;;;;5090733;28;8896;-67
2024/01/20 13:54:27;;;;;;;;;0.00;0.00;;;;;;;;5089697;28;8796;-67
2024/01/20 13:56:53;;;;;;;;;2.00;2.00;;;;;;;;5090526;28;8796;-68
2024/01/20 13:59:18;;;;;;;;;0.00;0.00;;;;;;;;5090837;28;9521;-68
2024/01/20 14:01:43;;;;;;;;;0.00;0.00;;;;;;;;5090641;28;8803;-68
2024/01/20 14:04:09;;;;;;;;;1.00;1.00;;;;;;;;5089532;28;8823;-68
2024/01/20 14:06:34;;;;;;;;;0.00;0.00;;;;;;;;5090757;28;8866;-68
2024/01/20 14:08:59;;;;;;;;;0.00;0.00;;;;;;;;5090427;28;8778;-69
2024/01/20 14:11:26;;;;;;;;;0.00;0.00;;;;;;;;5090560;28;8798;-69
2024/01/20 14:13:51;;;;;;;;;0.00;0.00;;;;;;;;5089558;28;8812;-69
2024/01/20 14:18:47;;;;;;;;;0.00;0.00;;;;;;;;5077789;28;9702;-73
2024/01/20 14:21:12;;;;;;;;;0.00;0.00;;;;;;;;5089514;28;11455;-73
2024/01/20 14:23:37;;;;;;;;;0.00;0.00;;;;;;;;5087790;28;9623;-76
2024/01/20 14:26:02;;;;;;;;;0.00;0.00;;;;;;;;5069506;28;8807;-77
2024/01/20 14:28:28;;;;;;;;;0.00;0.00;;;;;;;;5069419;28;8818;-74
2024/01/20 14:30:53;;;;;;;;;0.00;0.00;;;;;;;;5069374;28;8831;-73
2024/01/20 14:33:18;;;;;;;;;0.00;0.00;;;;;;;;5069639;28;8837;-74
2024/01/20 14:35:44;;;;;;;;;2.00;0.00;;;;;;;;5068363;28;8940;-71
2024/01/20 14:38:10;;;;;;;;;0.00;0.00;;;;;;;;5069279;28;9555;-72
2024/01/20 14:40:35;;;;;;;;;0.00;0.00;;;;;;;;5069469;28;8813;-72
2024/01/20 14:43:00;;;;;;;;;0.00;0.00;;;;;;;;5069365;28;8799;-73
2024/01/20 14:45:25;;;;;;;;;0.00;0.00;;;;;;;;5082615;28;8962;-74
2024/01/20 14:47:52;;;;;;;;;0.00;0.00;;;;;;;;5088988;28;8818;-75
2024/01/20 14:50:17;;;;;;;;;1.00;0.00;;;;;;;;5089297;28;11555;-74
2024/01/20 14:52:42;;;;;;;;;0.00;0.00;;;;;;;;5080453;28;8786;-74
2024/01/20 14:55:08;;;;;;;;;1.00;0.00;;;;;;;;5070219;28;8844;-75
2024/01/20 14:57:33;;;;;;;;;0.00;0.00;;;;;;;;5088986;28;8796;-76
2024/01/20 14:59:58;;;;;;;;;0.00;0.00;;;;;;;;5087423;28;8835;-74
2024/01/20 15:02:23;;;;;;;;;0.00;0.00;;;;;;;;5088360;28;9573;-74
2024/01/20 15:04:50;;;;;;;;;0.00;0.00;;;;;;;;5085301;28;8962;-75
2024/01/20 15:07:15;;;;;;;;;0.00;0.00;;;;;;;;5089050;28;8784;-72
2024/01/20 15:09:41;;;;;;;;;0.00;0.00;;;;;;;;5085406;28;11535;-72
2024/01/20 15:12:06;;;;;;;;;1.00;0.00;;;;;;;;5072753;28;8839;-74
2024/01/20 15:14:32;;;;;;;;;0.00;0.00;;;;;;;;5079828;28;8808;-69
2024/01/20 15:16:57;;;;;;;;;0.25;0.00;;;;;;;;5091444;28;9498;-71
2024/01/20 15:19:23;;;;;;;;;1.00;0.00;;;;;;;;5089351;28;8938;-73
2024/01/20 15:21:48;;;;;;;;;0.00;0.00;;;;;;;;5090910;28;8812;-71
2024/01/20 15:24:13;;;;;;;;;0.75;0.75;;;;;;;;5083316;28;8836;-76
2024/01/20 15:26:39;;;;;;;;;0.00;0.00;;;;;;;;5070567;28;8798;-74
2024/01/20 15:29:05;;;;;;;;;0.00;0.00;;;;;;;;5070081;28;8887;-77
2024/01/20 15:31:30;;;;;;;;;1.75;0.00;;;;;;;;5070029;28;8944;-75
2024/01/20 15:33:57;;;;;;;;;0.00;0.00;;;;;;;;5070267;28;8816;-71
2024/01/20 15:36:23;;;;;;;;;0.75;0.00;;;;;;;;5072516;28;8867;-75
2024/01/20 15:38:48;;;;;;;;;0.00;0.00;;;;;;;;5072262;28;11480;-73
2024/01/20 15:41:14;;;;;;;;;0.00;0.00;;;;;;;;5072013;28;11465;-73
2024/01/20 15:43:39;;;;;;;;;0.00;0.00;;;;;;;;5070551;28;8858;-73
2024/01/20 15:46:04;;;;;;;;;0.00;0.00;;;;;;;;5071491;28;8821;-73
2024/01/20 15:48:30;;;;;;;;;0.00;0.00;;;;;;;;5079738;28;8816;-75
2024/01/20 15:50:55;;;;;;;;;1.00;0.00;;;;;;;;5076869;28;8950;-75
2024/01/20 15:53:20;;;;;;;;;0.00;0.00;;;;;;;;5069040;28;8833;-75
2024/01/20 15:55:46;;;;;;;;;1.25;0.00;;;;;;;;5069043;28;8819;-74
2024/01/20 15:58:11;;;;;;;;;0.00;0.00;;;;;;;;5069687;28;9139;-75
2024/01/20 16:00:37;;;;;;;;;0.00;0.00;;;;;;;;5070092;28;8802;-73
2024/01/20 16:03:02;;;;;;;;;0.00;0.00;;;;;;;;5070433;28;8900;-72
2024/01/20 16:05:28;;;;;;;;;0.00;0.00;;;;;;;;5068810;28;9594;-74
2024/01/20 16:07:54;;;;;;;;;0.00;0.00;;;;;;;;5071520;28;9678;-74
2024/01/20 16:10:19;;;;;;;;;0.00;0.00;;;;;;;;5071735;28;11493;-74
2024/01/20 16:12:44;;;;;;;;;1.00;0.00;;;;;;;;5071657;28;8763;-76
2024/01/20 16:15:11;;;;;;;;;0.00;0.00;;;;;;;;5070182;28;9560;-71
2024/01/20 16:17:36;;;;;;;;;0.00;0.00;;;;;;;;5079510;22;9613;-68
2024/01/20 16:20:02;;;;;;;;;1.50;0.00;;;;;;;;5050787;28;11470;-70
2024/01/20 16:22:28;;;;;;;;;0.00;0.00;;;;;;;;5052473;28;8779;-71
2024/01/20 16:24:53;;;;;;;;;0.00;0.00;;;;;;;;5050712;28;12366;-72
2024/01/20 16:27:19;;;;;;;;;0.00;0.00;;;;;;;;5050512;28;8815;-70
2024/01/20 16:29:44;;;;;;;;;0.00;0.00;;;;;;;;5052125;28;8779;-71
2024/01/20 16:32:11;;;;;;;;;1.00;0.00;;;;;;;;5051957;28;8908;-71
2024/01/20 16:34:36;;;;;;;;;0.00;0.00;;;;;;;;5050797;28;8904;-73
2024/01/20 16:37:02;;;;;;;;;0.00;0.00;;;;;;;;5052245;28;11422;-70
2024/01/20 16:39:28;;;;;;;;;0.00;0.00;;;;;;;;5051806;28;8837;-71
2024/01/20 16:41:55;;;;;;;;;0.00;0.00;;;;;;;;5051804;28;11433;-73
2024/01/20 16:44:20;;;;;;;;;0.00;0.00;;;;;;;;5049346;28;8861;-70
2024/01/20 16:46:50;;;;;;;;;0.50;0.00;;;;;;;;5051606;28;12153;-71
2024/01/20 16:49:17;;;;;;;;;1.00;0.00;;;;;;;;5051546;28;8853;-70
2024/01/20 16:51:43;;;;;;;;;0.00;0.00;;;;;;;;5064456;28;11443;-71
2024/01/20 16:54:08;;;;;;;;;0.00;0.00;;;;;;;;5057762;28;11489;-72
2024/01/20 16:56:34;;;;;;;;;0.00;0.00;;;;;;;;5051663;28;8790;-72
2024/01/20 16:58:59;;;;;;;;;0.75;0.00;;;;;;;;5051629;28;8879;-72
2024/01/20 17:01:24;;;;;;;;;0.00;0.00;;;;;;;;5051425;28;9584;-72
2024/01/20 17:03:49;;;;;;;;;0.00;0.00;;;;;;;;5051860;28;8947;-73
2024/01/20 17:06:19;;;;;;;;;0.00;0.00;;;;;;;;5071364;28;8795;-71
2024/01/20 17:08:44;;;;;;;;;0.00;0.00;;;;;;;;5059586;28;8830;-72
2024/01/20 17:11:09;;;;;;;;;0.00;0.00;;;;;;;;5051115;28;11528;-70
2024/01/20 17:13:35;;;;;;;;;0.00;0.00;;;;;;;;5050592;28;8787;-70
2024/01/20 17:16:00;;;;;;;;;1.75;0.00;;;;;;;;5050635;28;8862;-70
2024/01/20 17:18:25;;;;;;;;;0.00;0.00;;;;;;;;5051483;28;8903;-71
2024/01/20 17:20:50;;;;;;;;;0.00;0.00;;;;;;;;5051118;28;8814;-71
2024/01/20 17:23:16;;;;;;;;;0.00;0.00;;;;;;;;5051154;28;8876;-70
2024/01/20 17:25:41;;;;;;;;;1.00;0.00;;;;;;;;5049736;28;9782;-71
2024/01/20 17:28:06;;;;;;;;;1.00;1.00;;;;;;;;5050910;28;8815;-71
2024/01/20 17:30:32;;;;;;;;;0.00;0.00;;;;;;;;5050382;28;8853;-71
2024/01/20 17:32:57;;;;;;;;;0.00;0.00;;;;;;;;5050966;28;8888;-71
2024/01/20 17:35:23;;;;;;;;;0.00;0.00;;;;;;;;5049554;28;8791;-71
2024/01/20 17:37:48;;;;;;;;;0.25;0.00;;;;;;;;5050684;28;8838;-71
2024/01/20 17:40:14;;;;;;;;;0.00;0.00;;;;;;;;5050703;28;8805;-74
2024/01/20 17:42:40;;;;;;;;;0.00;0.00;;;;;;;;5050899;28;8801;-71
2024/01/20 17:45:09;;;;;;;;;0.00;0.00;;;;;;;;5049649;28;8807;-70
2024/01/20 17:47:36;;;;;;;;;0.75;0.75;;;;;;;;5050719;28;11445;-75
2024/01/20 17:50:01;;;;;;;;;1.75;0.00;;;;;;;;5029479;28;12291;-71
2024/01/20 17:52:26;;;;;;;;;1.00;1.00;;;;;;;;5030625;28;11463;-69
2024/01/20 17:54:52;;;;;;;;;1.00;0.00;;;;;;;;5030551;28;8798;-68
2024/01/20 17:57:18;;;;;;;;;0.00;0.00;;;;;;;;5030801;28;8786;-68
2024/01/20 17:59:44;;;;;;;;;1.00;0.00;;;;;;;;5029296;28;8813;-70
2024/01/20 18:02:09;;;;;;;;;0.00;0.00;;;;;;;;5030663;28;11443;-69
2024/01/20 18:04:34;;;;;;;;;0.00;0.00;;;;;;;;5030647;28;8777;-71
2024/01/20 18:06:59;;;;;;;;;0.00;0.00;;;;;;;;5030759;28;8773;-70
2024/01/20 18:09:26;;;;;;;;;1.00;0.00;;;;;;;;5030384;28;8789;-70
2024/01/20 18:11:52;;;;;;;;;0.00;0.00;;;;;;;;5030535;28;8890;-71
2024/01/20 18:14:18;;;;;;;;;0.00;0.00;;;;;;;;5035069;28;11472;-72
2024/01/20 18:16:43;;;;;;;;;1.00;0.00;;;;;;;;5050131;28;11430;-73
2024/01/20 18:19:09;;;;;;;;;0.00;0.00;;;;;;;;5050367;28;8786;-69
2024/01/20 18:21:34;;;;;;;;;0.00;0.00;;;;;;;;5049661;28;8853;-71
2024/01/20 18:24:00;;;;;;;;;0.00;0.00;;;;;;;;5050116;28;8803;-71
2024/01/20 18:26:26;;;;;;;;;0.00;0.00;;;;;;;;5050534;28;8813;-72
2024/01/20 18:28:51;;;;;;;;;0.00;0.00;;;;;;;;5049728;28;8945;-71
2024/01/20 18:31:17;;;;;;;;;0.00;0.00;;;;;;;;5048643;28;12380;-72
2024/01/20 18:33:42;;;;;;;;;0.00;0.00;;;;;;;;5051724;28;8798;-72
2024/01/20 18:36:08;;;;;;;;;1.00;0.00;;;;;;;;5070092;28;8815;-71
2024/01/20 18:38:33;;;;;;;;;2.75;0.00;;;;;;;;5070205;28;8792;-72
2024/01/20 18:40:58;;;;;;;;;0.00;0.00;;;;;;;;5064633;28;8826;-72
2024/01/20 18:43:24;;;;;;;;;1.00;0.00;;;;;;;;5050956;28;8876;-72
2024/01/20 18:45:49;;;;;;;;;0.00;0.00;;;;;;;;5053504;28;8787;-72
2024/01/20 18:48:14;;;;;;;;;1.00;0.00;;;;;;;;5053310;28;8818;-70
2024/01/20 18:50:39;;;;;;;;;0.00;0.00;;;;;;;;5053084;28;8907;-70
2024/01/20 18:53:05;;;;;;;;;0.25;0.00;;;;;;;;5052887;28;9524;-71
2024/01/20 18:55:30;;;;;;;;;0.00;0.00;;;;;;;;5053344;28;8815;-70
2024/01/20 18:57:55;;;;;;;;;0.00;0.00;;;;;;;;5053143;28;8798;-69
2024/01/20 19:00:20;;;;;;;;;0.00;0.00;;;;;;;;5053322;28;8819;-69
2024/01/20 19:02:46;;;;;;;;;0.00;0.00;;;;;;;;5052724;28;8798;-70
2024/01/20 19:05:12;;;;;;;;;0.00;0.00;;;;;;;;5051563;28;9084;-69
2024/01/20 19:07:37;;;;;;;;;1.00;1.00;;;;;;;;5050923;28;9560;-71
2024/01/20 19:10:04;;;;;;;;;0.00;0.00;;;;;;;;5053964;28;8798;-70
2024/01/20 19:12:29;;;;;;;;;0.00;0.00;;;;;;;;5050088;28;8801;-70
2024/01/20 19:14:55;;;;;;;;;0.00;0.00;;;;;;;;5051946;28;11431;-69
2024/01/20 19:17:20;;;;;;;;;0.75;0.00;;;;;;;;5052531;28;8875;-70
2024/01/20 19:19:46;;;;;;;;;0.00;0.00;;;;;;;;5051215;28;8865;-70
2024/01/20 19:22:12;;;;;;;;;0.00;0.00;;;;;;;;5052915;28;8831;-70
2024/01/20 19:24:37;;;;;;;;;0.00;0.00;;;;;;;;5052261;28;8888;-71
2024/01/20 19:27:03;;;;;;;;;0.00;0.00;;;;;;;;5050736;28;8806;-70
2024/01/20 19:29:28;;;;;;;;;0.00;0.00;;;;;;;;5052726;28;8823;-70
2024/01/20 19:31:53;;;;;;;;;1.00;0.00;;;;;;;;5051662;28;9692;-70
2024/01/20 19:34:19;;;;;;;;;2.00;0.00;;;;;;;;5052092;28;8795;-69
2024/01/20 19:36:44;;;;;;;;;0.00;0.00;;;;;;;;5052691;28;8817;-70
2024/01/20 19:39:10;;;;;;;;;0.00;0.00;;;;;;;;5052477;28;8787;-70
2024/01/20 19:41:35;;;;;;;;;0.00;0.00;;;;;;;;5052957;28;8880;-83
2024/01/20 19:44:01;;;;;;;;;0.00;0.00;;;;;;;;5053072;28;8826;-79
2024/01/20 19:46:26;;;;;;;;;0.00;0.00;;;;;;;;5050763;28;8819;-78
2024/01/20 19:48:51;;;;;;;;;0.00;0.00;;;;;;;;5053030;28;8791;-78
2024/01/20 19:51:16;;;;;;;;;0.75;0.00;;;;;;;;5052957;28;9554;-80
2024/01/20 19:53:44;;;;;;;;;0.50;0.00;;;;;;;;5051199;28;8813;-80
2024/01/20 19:56:09;;;;;;;;;0.00;0.00;;;;;;;;5051801;28;8787;-79
2024/01/20 19:58:36;;;;;;;;;0.00;0.00;;;;;;;;5052493;28;11487;-80
2024/01/20 20:01:02;;;;;;;;;0.00;0.00;;;;;;;;5053083;28;9524;-80
2024/01/20 20:03:27;;;;;;;;;0.00;0.00;;;;;;;;5051622;28;11451;-80
2024/01/20 20:05:52;;;;;;;;;0.00;0.00;;;;;;;;5052221;28;8783;-86
2024/01/20 20:08:22;;;;;;;;;0.00;0.00;;;;;;;;5071140;28;8800;-83
2024/01/20 20:10:48;;;;;;;;;0.00;0.00;;;;;;;;5072591;28;8820;-79
2024/01/20 20:13:13;;;;;;;;;0.00;0.00;;;;;;;;5072716;28;11423;-80
2024/01/20 20:15:38;;;;;;;;;0.00;0.00;;;;;;;;5072646;28;8808;-77
2024/01/20 20:18:04;;;;;;;;;0.00;0.00;;;;;;;;5065138;28;8860;-78
2024/01/20 20:20:29;;;;;;;;;0.00;0.00;;;;;;;;5052498;28;8828;-79
2024/01/20 20:22:54;;;;;;;;;0.50;0.00;;;;;;;;5052445;28;8803;-79
2024/01/20 20:25:20;;;;;;;;;0.00;0.00;;;;;;;;5052440;28;8799;-79
2024/01/20 20:27:45;;;;;;;;;0.00;0.00;;;;;;;;5049448;28;8826;-75
2024/01/20 20:30:10;;;;;;;;;1.00;0.00;;;;;;;;5052222;28;8845;-94
2024/01/20 20:32:38;;;;;;;;;0.00;0.00;;;;;;;;5052320;28;8824;-88
2024/01/20 20:35:03;;;;;;;;;0.75;0.00;;;;;;;;5052079;28;8794;-80
2024/01/20 20:37:29;;;;;;;;;0.00;0.00;;;;;;;;5052079;28;12121;-82
2024/01/20 20:39:55;;;;;;;;;0.00;0.00;;;;;;;;5050864;28;9684;-80
2024/01/20 20:42:21;;;;;;;;;0.00;0.00;;;;;;;;5051672;28;11903;-80
2024/01/20 20:44:47;;;;;;;;;0.25;0.00;;;;;;;;5051501;28;8837;-81
2024/01/20 20:47:12;;;;;;;;;0.00;0.00;;;;;;;;5052105;28;11434;-80
2024/01/20 20:49:38;;;;;;;;;0.00;0.00;;;;;;;;5050342;28;8838;-81
2024/01/20 20:52:03;;;;;;;;;0.00;0.00;;;;;;;;5052090;28;8834;-81
2024/01/20 20:54:28;;;;;;;;;0.00;0.00;;;;;;;;5050899;28;8790;-81
2024/01/20 20:56:54;;;;;;;;;2.00;0.00;;;;;;;;5050483;28;8814;-81
2024/01/20 20:59:19;;;;;;;;;0.00;0.00;;;;;;;;5050567;28;8823;-81
2024/01/20 21:01:45;;;;;;;;;0.00;0.00;;;;;;;;5052010;28;11512;-81
2024/01/20 21:04:10;;;;;;;;;0.00;0.00;;;;;;;;5051189;28;8791;-81
2024/01/20 21:06:36;;;;;;;;;0.00;0.00;;;;;;;;5050918;28;8876;-81
2024/01/20 21:09:01;;;;;;;;;0.00;0.00;;;;;;;;5051599;28;8826;-80
2024/01/20 21:11:27;;;;;;;;;0.75;0.75;;;;;;;;5049957;28;8834;-81
2024/01/20 21:13:52;;;;;;;;;0.00;0.00;;;;;;;;5050401;28;9506;-80
2024/01/20 21:16:18;;;;;;;;;0.00;0.00;;;;;;;;5051090;28;8906;-82
2024/01/20 21:18:43;;;;;;;;;4.50;0.00;;;;;;;;5050027;28;8907;-80
2024/01/20 21:21:08;;;;;;;;;0.00;0.00;;;;;;;;5050944;28;8795;-83
2024/01/20 21:23:33;;;;;;;;;0.00;0.00;;;;;;;;5051428;28;8775;-83
2024/01/20 21:25:59;;;;;;;;;2.00;0.00;;;;;;;;5051217;28;8799;-80
2024/01/20 21:28:24;;;;;;;;;0.00;0.00;;;;;;;;5051054;28;8829;-80
2024/01/20 21:30:49;;;;;;;;;4.00;0.00;;;;;;;;5050999;28;8845;-82
2024/01/20 21:33:15;;;;;;;;;0.00;0.00;;;;;;;;5051158;28;8791;-82
2024/01/20 21:35:40;;;;;;;;;0.50;0.00;;;;;;;;5050650;28;9524;-79
2024/01/20 21:38:06;;;;;;;;;0.00;0.00;;;;;;;;5051114;28;8771;-79
2024/01/20 21:40:32;;;;;;;;;1.00;0.00;;;;;;;;5051051;28;8827;-80
2024/01/20 21:42:57;;;;;;;;;0.00;0.00;;;;;;;;5049298;28;11468;-80
2024/01/20 21:45:23;;;;;;;;;1.50;0.00;;;;;;;;5050830;28;8783;-80
2024/01/20 21:47:48;;;;;;;;;0.00;0.00;;;;;;;;5049475;28;8815;-80
2024/01/20 21:50:14;;;;;;;;;0.00;0.00;;;;;;;;5050593;28;8775;-81
2024/01/20 21:52:39;;;;;;;;;0.00;0.00;;;;;;;;5049551;28;8919;-81
2024/01/20 21:55:04;;;;;;;;;0.00;0.00;;;;;;;;5050810;28;8799;-81
2024/01/20 21:57:31;;;;;;;;;0.00;0.00;;;;;;;;5050635;28;8805;-81
2024/01/20 21:59:58;;;;;;;;;0.00;0.00;;;;;;;;5051060;28;8823;-81
2024/01/20 22:02:23;;;;;;;;;0.50;0.00;;;;;;;;5050584;28;11476;-81
2024/01/20 22:04:49;;;;;;;;;0.00;0.00;;;;;;;;5048914;28;11458;-82
2024/01/20 22:07:14;;;;;;;;;1.00;0.00;;;;;;;;5050680;28;8868;-81
2024/01/20 22:09:46;;;;;;;;;0.00;0.00;;;;;;;;5050676;28;8783;-82
2024/01/20 22:12:11;;;;;;;;;0.00;0.00;;;;;;;;5049397;28;8870;-82
2024/01/20 22:14:36;;;;;;;;;0.25;0.00;;;;;;;;5050411;28;11497;-80
2024/01/20 22:17:02;;;;;;;;;0.00;0.00;;;;;;;;5048977;28;8976;-83
2024/01/20 22:19:27;;;;;;;;;0.00;0.00;;;;;;;;5050502;28;8791;-83
2024/01/20 22:21:52;;;;;;;;;0.00;0.00;;;;;;;;5050455;28;8865;-81
2024/01/20 22:24:19;;;;;;;;;0.00;0.00;;;;;;;;5049024;28;8818;-83
2024/01/20 22:26:45;;;;;;;;;0.00;0.00;;;;;;;;5048926;28;9653;-81
2024/01/20 22:29:10;;;;;;;;;0.00;0.00;;;;;;;;5050457;28;11451;-81
2024/01/20 22:31:35;;;;;;;;;1.00;0.00;;;;;;;;5050297;28;8822;-82
2024/01/20 22:34:00;;;;;;;;;0.00;0.00;;;;;;;;5048808;28;8814;-82
2024/01/20 22:36:26;;;;;;;;;0.00;0.00;;;;;;;;5048234;28;8810;-81
2024/01/20 22:38:51;;;;;;;;;1.00;0.00;;;;;;;;4837853;28;11888;-81
2024/01/20 22:41:16;;;;;;;;;0.00;0.00;;;;;;;;4981544;28;10539;-82
2024/01/20 22:43:44;;;;;;;;;0.00;0.00;;;;;;;;4989799;28;8827;-80
2024/01/20 22:46:14;;;;;;;;;1.00;0.00;;;;;;;;4989645;28;8818;-81
2024/01/20 22:48:39;;;;;;;;;0.00;0.00;;;;;;;;4999078;28;11500;-82
2024/01/20 22:51:04;;;;;;;;;2.25;0.00;;;;;;;;5008307;28;11506;-82
2024/01/20 22:53:31;;;;;;;;;1.00;0.00;;;;;;;;5008564;28;9797;-81
2024/01/20 22:55:57;;;;;;;;;0.00;0.00;;;;;;;;5008726;28;8839;-78
2024/01/20 22:58:22;;;;;;;;;0.00;0.00;;;;;;;;5007423;28;11490;-79
2024/01/20 23:00:47;;;;;;;;;0.50;0.00;;;;;;;;5008660;28;8791;-79
2024/01/20 23:03:12;;;;;;;;;1.00;0.00;;;;;;;;5008617;28;9672;-79
2024/01/20 23:05:42;;;;;;;;;1.00;0.00;;;;;;;;5009913;28;8804;-79
2024/01/20 23:08:08;;;;;;;;;0.00;0.00;;;;;;;;5010692;28;8804;-78
2024/01/20 23:10:33;;;;;;;;;1.00;0.00;;;;;;;;5010308;28;11514;-79
2024/01/20 23:12:58;;;;;;;;;0.00;0.00;;;;;;;;5010486;28;8815;-79
2024/01/20 23:15:24;;;;;;;;;0.00;0.00;;;;;;;;5010386;28;8863;-79
2024/01/20 23:17:49;;;;;;;;;0.00;0.00;;;;;;;;5010621;28;8808;-80
2024/01/20 23:20:14;;;;;;;;;0.00;0.00;;;;;;;;5010295;28;9777;-79
2024/01/20 23:22:40;;;;;;;;;1.00;0.00;;;;;;;;5010520;28;8800;-79
2024/01/20 23:25:05;;;;;;;;;2.00;0.00;;;;;;;;5010231;28;8792;-79
2024/01/20 23:27:30;;;;;;;;;2.25;0.00;;;;;;;;5010229;28;8939;-79
2024/01/20 23:29:55;;;;;;;;;0.00;0.00;;;;;;;;5013908;28;8808;-79
2024/01/20 23:32:21;;;;;;;;;0.00;0.00;;;;;;;;5013734;28;8839;-78
2024/01/20 23:34:46;;;;;;;;;0.00;0.00;;;;;;;;5014041;28;8792;-81
2024/01/20 23:37:12;;;;;;;;;0.00;0.00;;;;;;;;5012389;28;8850;-81
2024/01/20 23:39:37;;;;;;;;;0.00;0.00;;;;;;;;5013725;28;8800;-79
2024/01/20 23:42:03;;;;;;;;;0.00;0.00;;;;;;;;5013503;28;11497;-79
2024/01/20 23:44:28;;;;;;;;;0.00;0.00;;;;;;;;5012284;28;8823;-79
2024/01/20 23:46:54;;;;;;;;;0.00;0.00;;;;;;;;5013607;28;8788;-79
2024/01/20 23:49:19;;;;;;;;;0.00;0.00;;;;;;;;5013561;28;8807;-79
